Time;durP1;ratioP1;P1;durP2;ratioP2;P2;SDS_P1;SDS_P2;PMS_P1;PMS_P2;Temp;Humidity;BMP_temperature;BMP_pressure;BME280_temperature;BME280_humidity;BME280_pressure;Samples;Min_cycle;Max_cycle;Signal;HPM_P1;HPM_P2
2023/10/24 00:01:33;;;;;;;8.48;3.08;;;;;;;;;;5081306;28;20035;-79
2023/10/24 00:03:58;;;;;;;9.55;3.40;;;;;;;;;;5100832;28;20020;-78
2023/10/24 00:06:24;;;;;;;7.57;3.33;;;;;;;;;;5104226;28;20054;-78
2023/10/24 00:08:49;;;;;;;8.65;2.88;;;;;;;;;;5103987;28;20111;-79
2023/10/24 00:11:14;;;;;;;6.38;2.60;;;;;;;;;;5106410;28;20032;-78
2023/10/24 00:13:39;;;;;;;8.63;3.22;;;;;;;;;;5081573;28;20115;-79
2023/10/24 00:16:04;;;;;;;9.80;3.20;;;;;;;;;;5098437;28;20040;-78
2023/10/24 00:18:30;;;;;;;7.03;2.40;;;;;;;;;;5100145;28;20035;-78
2023/10/24 00:20:55;;;;;;;6.50;2.33;;;;;;;;;;5080260;28;20039;-78
2023/10/24 00:23:20;;;;;;;6.70;2.78;;;;;;;;;;5097110;28;20031;-78
2023/10/24 00:25:46;;;;;;;6.22;2.72;;;;;;;;;;5081927;28;20031;-78
2023/10/24 00:28:11;;;;;;;8.50;2.88;;;;;;;;;;5076358;28;20032;-78
2023/10/24 00:30:36;;;;;;;5.85;2.38;;;;;;;;;;5095687;28;20036;-78
2023/10/24 00:33:02;;;;;;;6.82;2.65;;;;;;;;;;5084966;28;20468;-78
2023/10/24 00:35:28;;;;;;;8.18;2.65;;;;;;;;;;5100415;28;20032;-78
2023/10/24 00:37:54;;;;;;;7.07;2.40;;;;;;;;;;5082857;28;20073;-78
2023/10/24 00:40:19;;;;;;;8.18;2.70;;;;;;;;;;5079529;28;20035;-77
2023/10/24 00:42:45;;;;;;;8.77;3.20;;;;;;;;;;5091570;28;20154;-78
2023/10/24 00:45:10;;;;;;;7.30;2.40;;;;;;;;;;5078332;28;20028;-78
2023/10/24 00:47:36;;;;;;;6.78;2.65;;;;;;;;;;5065413;28;20066;-78
2023/10/24 00:50:02;;;;;;;8.50;2.92;;;;;;;;;;5081868;28;20054;-77
2023/10/24 00:52:27;;;;;;;7.63;2.90;;;;;;;;;;5104154;28;20058;-78
2023/10/24 00:54:52;;;;;;;9.05;2.58;;;;;;;;;;5075781;28;20020;-78
2023/10/24 00:57:18;;;;;;;7.82;2.83;;;;;;;;;;5076304;28;20020;-78
2023/10/24 00:59:43;;;;;;;6.85;2.45;;;;;;;;;;5097924;28;20073;-78
2023/10/24 01:02:10;;;;;;;5.53;2.80;;;;;;;;;;5072618;28;20043;-78
2023/10/24 01:04:53;;;;;;;9.03;3.13;;;;;;;;;;5050690;28;20141;-78
2023/10/24 01:07:18;;;;;;;7.93;2.58;;;;;;;;;;5081997;28;20150;-78
2023/10/24 01:09:45;;;;;;;7.35;2.42;;;;;;;;;;5074100;28;20053;-78
2023/10/24 01:12:10;;;;;;;10.23;2.88;;;;;;;;;;5090262;28;20122;-78
2023/10/24 01:14:35;;;;;;;6.88;2.65;;;;;;;;;;5080935;28;20042;-78
2023/10/24 01:17:08;;;;;;;7.55;2.65;;;;;;;;;;5081325;28;20091;-78
2023/10/24 01:19:33;;;;;;;9.25;2.78;;;;;;;;;;5078795;28;20031;-78
2023/10/24 01:21:58;;;;;;;5.45;2.50;;;;;;;;;;5095026;28;20021;-78
2023/10/24 01:24:24;;;;;;;8.15;2.80;;;;;;;;;;5077959;28;20020;-78
2023/10/24 01:26:50;;;;;;;6.57;2.40;;;;;;;;;;5080478;28;20027;-78
2023/10/24 01:29:15;;;;;;;7.28;3.20;;;;;;;;;;5100509;28;20058;-78
2023/10/24 01:31:40;;;;;;;8.32;2.80;;;;;;;;;;5087107;28;20023;-78
2023/10/24 01:34:05;;;;;;;9.30;2.67;;;;;;;;;;5106017;28;20369;-78
2023/10/24 01:36:31;;;;;;;6.57;2.90;;;;;;;;;;5102545;28;20058;-77
2023/10/24 01:38:56;;;;;;;8.02;2.28;;;;;;;;;;5089527;28;20137;-78
2023/10/24 01:41:21;;;;;;;7.78;2.38;;;;;;;;;;5089411;28;20039;-78
2023/10/24 01:43:47;;;;;;;7.97;2.40;;;;;;;;;;5102377;28;20024;-78
2023/10/24 01:46:12;;;;;;;5.88;2.38;;;;;;;;;;5104929;28;20419;-77
2023/10/24 01:48:37;;;;;;;9.07;2.50;;;;;;;;;;5087600;28;20023;-78
2023/10/24 01:51:02;;;;;;;9.63;2.45;;;;;;;;;;5099684;28;20024;-78
2023/10/24 01:53:28;;;;;;;7.35;2.85;;;;;;;;;;5099945;28;20480;-78
2023/10/24 01:55:53;;;;;;;7.30;2.92;;;;;;;;;;5085122;28;20040;-78
2023/10/24 01:58:19;;;;;;;9.10;3.00;;;;;;;;;;5088783;28;20024;-78
2023/10/24 02:00:44;;;;;;;10.23;3.15;;;;;;;;;;5089991;28;20057;-78
2023/10/24 02:03:10;;;;;;;4.63;2.40;;;;;;;;;;5089336;28;20055;-79
2023/10/24 02:05:35;;;;;;;8.95;3.33;;;;;;;;;;5101241;28;20054;-78
2023/10/24 02:08:00;;;;;;;7.68;3.03;;;;;;;;;;5075228;28;20081;-78
2023/10/24 02:10:26;;;;;;;4.80;2.53;;;;;;;;;;5087314;28;20028;-78
2023/10/24 02:12:51;;;;;;;7.97;3.13;;;;;;;;;;5105824;28;20612;-78
2023/10/24 02:15:16;;;;;;;7.00;2.83;;;;;;;;;;5070408;28;20104;-79
2023/10/24 02:17:41;;;;;;;9.15;2.90;;;;;;;;;;5083975;28;20060;-78
2023/10/24 02:20:07;;;;;;;6.90;3.05;;;;;;;;;;5080291;28;20016;-79
2023/10/24 02:22:33;;;;;;;5.63;2.70;;;;;;;;;;5101134;28;20024;-79
2023/10/24 02:24:58;;;;;;;6.32;2.88;;;;;;;;;;5100816;28;20380;-79
2023/10/24 02:27:23;;;;;;;8.05;2.90;;;;;;;;;;5102275;28;20024;-78
2023/10/24 02:29:49;;;;;;;7.57;3.08;;;;;;;;;;5105595;28;20433;-79
2023/10/24 02:32:14;;;;;;;7.40;2.78;;;;;;;;;;5099372;28;20025;-79
2023/10/24 02:34:39;;;;;;;8.40;2.80;;;;;;;;;;5078484;28;20042;-79
2023/10/24 02:37:04;;;;;;;7.30;3.10;;;;;;;;;;5097194;28;20503;-79
2023/10/24 02:39:30;;;;;;;7.78;2.45;;;;;;;;;;5085749;28;20028;-78
2023/10/24 02:41:56;;;;;;;6.75;2.92;;;;;;;;;;5102963;28;20066;-78
2023/10/24 02:44:21;;;;;;;6.85;2.80;;;;;;;;;;5091682;28;20036;-78
2023/10/24 02:46:46;;;;;;;8.07;2.88;;;;;;;;;;5099218;28;20027;-78
2023/10/24 02:49:12;;;;;;;7.65;3.00;;;;;;;;;;5082067;28;20081;-78
2023/10/24 02:51:37;;;;;;;6.53;2.88;;;;;;;;;;5086159;28;20027;-78
2023/10/24 02:54:02;;;;;;;6.97;2.55;;;;;;;;;;5103044;28;20055;-78
2023/10/24 02:56:28;;;;;;;7.25;2.58;;;;;;;;;;5088608;28;20134;-78
2023/10/24 02:58:53;;;;;;;7.30;3.17;;;;;;;;;;5103047;28;20028;-78
2023/10/24 03:01:19;;;;;;;7.63;2.95;;;;;;;;;;5098649;28;20129;-79
2023/10/24 03:03:45;;;;;;;4.93;3.17;;;;;;;;;;5079795;28;20115;-78
2023/10/24 03:06:17;;;;;;;6.80;3.30;;;;;;;;;;5082945;28;20056;-78
2023/10/24 03:08:42;;;;;;;6.25;3.10;;;;;;;;;;5101817;28;20019;-78
2023/10/24 03:11:08;;;;;;;9.45;3.35;;;;;;;;;;5105654;28;20432;-80
2023/10/24 03:13:33;;;;;;;7.32;3.03;;;;;;;;;;5102504;28;20463;-78
2023/10/24 03:16:05;;;;;;;9.02;3.67;;;;;;;;;;5085925;28;20030;-78
2023/10/24 03:18:30;;;;;;;8.50;4.55;;;;;;;;;;5098279;28;20028;-78
2023/10/24 03:20:56;;;;;;;8.23;4.25;;;;;;;;;;5081674;28;20096;-78
2023/10/24 03:23:21;;;;;;;8.75;4.28;;;;;;;;;;5103688;28;20032;-78
2023/10/24 03:25:47;;;;;;;8.43;3.60;;;;;;;;;;5086698;28;20111;-78
2023/10/24 03:28:14;;;;;;;10.73;4.78;;;;;;;;;;5096477;28;20035;-78
2023/10/24 03:30:39;;;;;;;6.78;3.60;;;;;;;;;;5081196;28;20511;-79
2023/10/24 03:33:04;;;;;;;8.45;3.83;;;;;;;;;;5097788;28;20052;-78
2023/10/24 03:35:32;;;;;;;9.35;4.03;;;;;;;;;;5084782;28;20028;-78
2023/10/24 03:37:57;;;;;;;11.98;4.63;;;;;;;;;;5101226;28;20028;-79
2023/10/24 03:40:26;;;;;;;5.88;3.03;;;;;;;;;;5104362;28;20412;-78
2023/10/24 03:42:51;;;;;;;8.18;3.45;;;;;;;;;;5078805;28;20039;-78
2023/10/24 03:45:17;;;;;;;9.85;3.40;;;;;;;;;;5096941;28;20016;-78
2023/10/24 03:47:42;;;;;;;7.38;4.10;;;;;;;;;;5101393;28;20391;-79
2023/10/24 03:50:07;;;;;;;11.43;4.10;;;;;;;;;;5085274;28;20488;-79
2023/10/24 03:52:32;;;;;;;9.40;3.22;;;;;;;;;;5104040;28;20115;-78
2023/10/24 03:54:58;;;;;;;9.20;3.85;;;;;;;;;;5105428;28;20020;-80
2023/10/24 03:57:23;;;;;;;9.43;3.55;;;;;;;;;;5104689;28;20737;-79
2023/10/24 03:59:48;;;;;;;8.02;3.17;;;;;;;;;;5100736;28;20024;-79
2023/10/24 04:02:13;;;;;;;7.82;3.33;;;;;;;;;;5103214;28;20036;-78
2023/10/24 04:04:38;;;;;;;11.18;4.55;;;;;;;;;;5109119;28;20039;-79
2023/10/24 04:07:04;;;;;;;6.57;2.92;;;;;;;;;;5106455;28;20024;-79
2023/10/24 04:09:29;;;;;;;7.35;3.33;;;;;;;;;;5104129;28;20043;-78
2023/10/24 04:11:55;;;;;;;6.43;2.80;;;;;;;;;;5099378;28;20059;-79
2023/10/24 04:14:20;;;;;;;6.38;2.72;;;;;;;;;;5088215;28;20032;-78
2023/10/24 04:16:45;;;;;;;7.88;3.13;;;;;;;;;;5104223;28;20032;-79
2023/10/24 04:19:10;;;;;;;6.38;2.63;;;;;;;;;;5106089;28;20047;-78
2023/10/24 04:21:35;;;;;;;7.80;3.53;;;;;;;;;;5101155;28;20156;-78
2023/10/24 04:24:01;;;;;;;8.70;3.22;;;;;;;;;;5092623;28;20078;-78
2023/10/24 04:26:26;;;;;;;6.18;2.80;;;;;;;;;;5078584;28;20080;-77
2023/10/24 04:28:52;;;;;;;6.15;2.65;;;;;;;;;;5096674;28;20506;-77
2023/10/24 04:31:17;;;;;;;9.95;5.63;;;;;;;;;;5102658;28;20023;-78
2023/10/24 04:33:42;;;;;;;8.45;4.05;;;;;;;;;;5078122;28;20035;-77
2023/10/24 04:36:08;;;;;;;8.63;3.50;;;;;;;;;;5099585;28;20498;-77
2023/10/24 04:38:34;;;;;;;6.65;3.22;;;;;;;;;;5095406;28;20035;-77
2023/10/24 04:40:59;;;;;;;7.03;3.20;;;;;;;;;;5088824;28;20027;-76
2023/10/24 04:43:24;;;;;;;8.63;3.00;;;;;;;;;;5067791;28;20400;-77
2023/10/24 04:45:51;;;;;;;5.30;2.42;;;;;;;;;;5087175;28;20978;-77
2023/10/24 04:48:16;;;;;;;8.00;4.45;;;;;;;;;;5099660;28;20507;-77
2023/10/24 04:50:41;;;;;;;6.80;3.50;;;;;;;;;;5101640;28;20114;-78
2023/10/24 04:53:06;;;;;;;8.52;3.50;;;;;;;;;;5098641;28;20028;-77
2023/10/24 04:55:32;;;;;;;8.02;3.10;;;;;;;;;;5099561;28;20123;-78
2023/10/24 04:57:57;;;;;;;7.20;3.45;;;;;;;;;;5096554;28;20056;-77
2023/10/24 05:00:24;;;;;;;6.97;3.22;;;;;;;;;;5085732;28;20107;-78
2023/10/24 05:02:50;;;;;;;7.65;3.20;;;;;;;;;;5083124;28;20099;-78
2023/10/24 05:05:15;;;;;;;10.00;2.88;;;;;;;;;;5079244;28;20074;-78
2023/10/24 05:07:40;;;;;;;7.95;3.50;;;;;;;;;;5105646;28;20431;-78
2023/10/24 05:10:06;;;;;;;17.60;10.95;;;;;;;;;;5101083;28;20083;-78
2023/10/24 05:12:31;;;;;;;9.32;5.15;;;;;;;;;;5101219;28;20444;-77
2023/10/24 05:14:56;;;;;;;8.68;3.75;;;;;;;;;;5098641;28;20077;-78
2023/10/24 05:17:21;;;;;;;8.60;3.22;;;;;;;;;;5102160;28;20109;-78
2023/10/24 05:19:46;;;;;;;8.45;3.85;;;;;;;;;;5096965;28;20107;-78
2023/10/24 05:22:13;;;;;;;7.70;3.10;;;;;;;;;;5097741;28;20487;-78
2023/10/24 05:24:39;;;;;;;7.38;4.15;;;;;;;;;;5100856;28;20604;-78
2023/10/24 05:27:04;;;;;;;8.50;3.28;;;;;;;;;;5100848;28;20053;-78
2023/10/24 05:29:33;;;;;;;10.27;4.00;;;;;;;;;;5086416;28;20035;-78
2023/10/24 05:31:59;;;;;;;8.73;4.15;;;;;;;;;;5100112;28;20028;-78
2023/10/24 05:34:27;;;;;;;10.00;4.22;;;;;;;;;;5097384;28;20507;-78
2023/10/24 05:36:53;;;;;;;9.90;3.65;;;;;;;;;;5079798;28;20042;-78
2023/10/24 05:39:19;;;;;;;8.75;4.50;;;;;;;;;;5100238;28;20035;-78
2023/10/24 05:41:45;;;;;;;9.05;5.20;;;;;;;;;;5103720;28;20579;-78
2023/10/24 05:44:10;;;;;;;9.27;4.78;;;;;;;;;;5102913;28;20021;-78
2023/10/24 05:46:35;;;;;;;11.73;5.55;;;;;;;;;;5099963;28;20020;-78
2023/10/24 05:49:00;;;;;;;8.23;5.03;;;;;;;;;;5079704;28;20058;-78
2023/10/24 05:51:28;;;;;;;11.77;5.68;;;;;;;;;;5095631;28;20040;-78
2023/10/24 05:53:53;;;;;;;8.63;4.60;;;;;;;;;;5098557;28;20035;-78
2023/10/24 05:56:19;;;;;;;11.23;5.68;;;;;;;;;;5101358;28;20024;-78
2023/10/24 05:58:44;;;;;;;8.50;4.13;;;;;;;;;;5082134;28;20626;-78
2023/10/24 06:01:09;;;;;;;10.98;4.30;;;;;;;;;;5097105;28;20028;-78
2023/10/24 06:03:34;;;;;;;9.20;4.38;;;;;;;;;;5099843;28;20102;-78
2023/10/24 06:05:59;;;;;;;8.63;3.75;;;;;;;;;;5100028;28;20023;-78
2023/10/24 06:08:25;;;;;;;10.43;4.32;;;;;;;;;;5102790;28;20035;-78
2023/10/24 06:10:54;;;;;;;11.35;5.38;;;;;;;;;;5099499;28;20373;-78
2023/10/24 06:13:19;;;;;;;12.27;7.25;;;;;;;;;;5097361;28;20039;-78
2023/10/24 06:15:44;;;;;;;11.02;6.18;;;;;;;;;;5097071;28;20450;-77
2023/10/24 06:18:09;;;;;;;8.57;4.72;;;;;;;;;;5097323;28;20047;-78
2023/10/24 06:20:37;;;;;;;9.70;3.92;;;;;;;;;;5100622;28;20027;-78
2023/10/24 06:23:04;;;;;;;8.80;4.32;;;;;;;;;;5103382;28;20025;-78
2023/10/24 06:25:29;;;;;;;7.07;4.00;;;;;;;;;;5096909;28;20055;-78
2023/10/24 06:27:54;;;;;;;8.13;4.50;;;;;;;;;;5096114;28;20066;-78
2023/10/24 06:30:19;;;;;;;7.97;4.47;;;;;;;;;;5097363;28;20027;-77
2023/10/24 06:32:45;;;;;;;6.70;3.78;;;;;;;;;;5099294;28;20513;-78
2023/10/24 06:35:10;;;;;;;6.40;3.90;;;;;;;;;;5099664;28;20031;-78
2023/10/24 06:37:35;;;;;;;9.23;4.72;;;;;;;;;;5085795;28;20028;-78
2023/10/24 06:40:01;;;;;;;8.60;4.95;;;;;;;;;;5102517;28;20086;-78
2023/10/24 06:42:27;;;;;;;10.13;5.35;;;;;;;;;;5077346;28;20082;-78
2023/10/24 06:44:52;;;;;;;7.63;4.63;;;;;;;;;;5096802;28;20487;-77
2023/10/24 06:47:17;;;;;;;8.90;4.90;;;;;;;;;;5099522;28;20023;-78
2023/10/24 06:49:42;;;;;;;7.45;4.60;;;;;;;;;;5099397;28;20699;-78
2023/10/24 06:52:08;;;;;;;10.68;4.88;;;;;;;;;;5096279;28;20024;-78
2023/10/24 06:54:33;;;;;;;8.50;4.80;;;;;;;;;;5102286;28;20063;-78
2023/10/24 06:56:58;;;;;;;9.68;4.15;;;;;;;;;;5074489;28;20032;-78
2023/10/24 06:59:23;;;;;;;7.25;4.20;;;;;;;;;;5084066;28;20546;-78
2023/10/24 07:01:50;;;;;;;8.63;4.25;;;;;;;;;;5098218;28;20042;-78
2023/10/24 07:04:15;;;;;;;10.38;5.72;;;;;;;;;;5099179;28;20107;-78
2023/10/24 07:06:42;;;;;;;12.82;4.68;;;;;;;;;;5084261;28;20048;-78
2023/10/24 07:09:07;;;;;;;7.85;4.63;;;;;;;;;;5075460;28;20020;-77
2023/10/24 07:11:33;;;;;;;7.15;3.67;;;;;;;;;;5082284;28;20365;-78
2023/10/24 07:13:58;;;;;;;7.13;4.05;;;;;;;;;;5096348;28;20028;-77
2023/10/24 07:16:23;;;;;;;7.32;4.63;;;;;;;;;;5103144;28;20034;-78
2023/10/24 07:18:48;;;;;;;7.07;4.05;;;;;;;;;;5100638;28;20036;-78
2023/10/24 07:21:15;;;;;;;9.57;4.47;;;;;;;;;;5097811;28;20013;-79
2023/10/24 07:23:40;;;;;;;7.90;4.80;;;;;;;;;;5097341;28;20081;-78
2023/10/24 07:26:05;;;;;;;10.93;5.53;;;;;;;;;;5095541;28;20504;-78
2023/10/24 07:28:31;;;;;;;8.95;5.05;;;;;;;;;;5096486;28;20111;-78
2023/10/24 07:30:56;;;;;;;10.10;4.63;;;;;;;;;;5082015;28;20031;-78
2023/10/24 07:33:22;;;;;;;7.25;3.88;;;;;;;;;;5099007;28;20036;-78
2023/10/24 07:35:50;;;;;;;5.93;3.83;;;;;;;;;;5103637;28;20114;-78
2023/10/24 07:38:16;;;;;;;8.07;4.45;;;;;;;;;;5085817;28;20036;-78
2023/10/24 07:40:41;;;;;;;8.20;4.13;;;;;;;;;;5085420;28;20060;-78
2023/10/24 07:43:07;;;;;;;12.05;4.40;;;;;;;;;;5085176;28;20511;-78
2023/10/24 07:45:32;;;;;;;8.52;4.65;;;;;;;;;;5102668;28;20081;-78
2023/10/24 07:47:59;;;;;;;7.03;3.80;;;;;;;;;;5086539;28;20408;-78
2023/10/24 07:50:24;;;;;;;7.07;3.70;;;;;;;;;;5101406;28;20036;-78
2023/10/24 07:52:49;;;;;;;9.40;4.43;;;;;;;;;;5076958;28;20043;-78
2023/10/24 07:55:14;;;;;;;7.53;4.20;;;;;;;;;;5084462;28;20046;-78
2023/10/24 07:57:39;;;;;;;7.45;4.03;;;;;;;;;;5097071;28;20080;-78
2023/10/24 08:00:07;;;;;;;10.02;4.78;;;;;;;;;;5078830;28;20434;-78
2023/10/24 08:02:37;;;;;;;11.15;6.47;;;;;;;;;;5079036;28;20036;-78
2023/10/24 08:05:03;;;;;;;11.27;6.90;;;;;;;;;;5079560;28;20028;-78
2023/10/24 08:07:29;;;;;;;12.15;7.93;;;;;;;;;;5077728;28;20043;-78
2023/10/24 08:09:54;;;;;;;8.95;6.32;;;;;;;;;;5069533;28;20040;-78
2023/10/24 08:12:19;;;;;;;9.80;5.45;;;;;;;;;;5095056;28;20032;-78
2023/10/24 08:14:44;;;;;;;9.00;5.68;;;;;;;;;;5085166;28;20505;-78
2023/10/24 08:17:10;;;;;;;8.60;5.47;;;;;;;;;;5091863;28;20063;-78
2023/10/24 08:19:35;;;;;;;7.85;4.53;;;;;;;;;;5082443;28;20126;-78
2023/10/24 08:22:00;;;;;;;8.18;5.22;;;;;;;;;;5082322;28;20020;-79
2023/10/24 08:24:25;;;;;;;8.75;5.18;;;;;;;;;;5099842;28;20090;-78
2023/10/24 08:26:50;;;;;;;6.30;3.78;;;;;;;;;;5085487;28;20031;-79
2023/10/24 08:29:16;;;;;;;8.68;5.72;;;;;;;;;;5107694;28;20062;-78
2023/10/24 08:31:41;;;;;;;6.15;4.68;;;;;;;;;;5105628;28;20110;-79
2023/10/24 08:34:06;;;;;;;8.68;5.38;;;;;;;;;;5083186;28;20029;-79
2023/10/24 08:36:32;;;;;;;9.27;5.18;;;;;;;;;;5101105;28;20093;-78
2023/10/24 08:38:57;;;;;;;9.02;4.45;;;;;;;;;;5099466;28;20024;-79
2023/10/24 08:41:22;;;;;;;8.27;5.70;;;;;;;;;;5091114;28;20051;-79
2023/10/24 08:43:48;;;;;;;8.05;4.75;;;;;;;;;;5087822;28;20032;-78
2023/10/24 08:46:13;;;;;;;7.10;4.55;;;;;;;;;;5085992;28;20488;-78
2023/10/24 08:48:39;;;;;;;6.18;4.05;;;;;;;;;;5084457;28;20031;-78
2023/10/24 08:51:04;;;;;;;6.38;3.40;;;;;;;;;;5089034;28;20028;-79
2023/10/24 08:53:30;;;;;;;9.32;4.40;;;;;;;;;;5086406;28;20040;-79
2023/10/24 08:55:57;;;;;;;7.72;4.20;;;;;;;;;;5106257;28;20685;-78
2023/10/24 08:58:23;;;;;;;6.60;4.00;;;;;;;;;;5090849;28;20066;-78
2023/10/24 09:00:48;;;;;;;6.68;3.78;;;;;;;;;;5086856;28;20027;-79
2023/10/24 09:03:17;;;;;;;8.43;5.28;;;;;;;;;;5101075;28;20016;-78
2023/10/24 09:05:46;;;;;;;8.57;4.75;;;;;;;;;;5086814;28;20042;-79
2023/10/24 09:08:12;;;;;;;7.03;4.45;;;;;;;;;;5092933;28;20106;-78
2023/10/24 09:10:38;;;;;;;7.53;3.70;;;;;;;;;;5081842;28;20032;-78
2023/10/24 09:13:03;;;;;;;5.63;3.72;;;;;;;;;;5109341;28;20031;-79
2023/10/24 09:15:30;;;;;;;7.22;4.80;;;;;;;;;;5097862;28;20028;-78
2023/10/24 09:17:56;;;;;;;6.53;4.47;;;;;;;;;;5101243;28;20047;-79
2023/10/24 09:20:21;;;;;;;8.75;5.03;;;;;;;;;;5107664;28;20036;-79
2023/10/24 09:22:46;;;;;;;8.07;4.45;;;;;;;;;;5086452;28;20036;-79
2023/10/24 09:25:14;;;;;;;8.85;4.53;;;;;;;;;;5097239;28;20057;-78
2023/10/24 09:27:39;;;;;;;6.88;4.20;;;;;;;;;;5104300;28;20032;-78
2023/10/24 09:30:13;;;;;;;7.03;4.05;;;;;;;;;;5098140;28;20025;-78
2023/10/24 09:32:41;;;;;;;6.32;4.20;;;;;;;;;;5105130;28;20031;-78
2023/10/24 09:35:07;;;;;;;5.65;3.38;;;;;;;;;;5103940;28;20028;-79
2023/10/24 09:37:33;;;;;;;6.03;3.28;;;;;;;;;;5084303;28;20066;-79
2023/10/24 09:39:59;;;;;;;7.18;3.88;;;;;;;;;;5109188;28;20095;-79
2023/10/24 09:42:28;;;;;;;7.35;3.70;;;;;;;;;;5088781;28;20060;-78
2023/10/24 09:44:55;;;;;;;6.15;3.55;;;;;;;;;;5099914;28;20028;-79
2023/10/24 09:47:21;;;;;;;9.93;4.55;;;;;;;;;;5087932;28;20028;-79
2023/10/24 09:49:47;;;;;;;6.97;3.53;;;;;;;;;;5103255;28;20028;-79
2023/10/24 09:52:12;;;;;;;7.75;3.40;;;;;;;;;;5108040;28;20059;-78
2023/10/24 09:54:39;;;;;;;6.00;2.90;;;;;;;;;;5107917;28;20550;-79
2023/10/24 09:57:04;;;;;;;6.22;3.17;;;;;;;;;;5097917;28;20032;-78
2023/10/24 09:59:30;;;;;;;6.55;3.75;;;;;;;;;;5105262;28;20410;-78
2023/10/24 10:01:56;;;;;;;7.47;3.67;;;;;;;;;;5076212;28;20037;-78
2023/10/24 10:04:21;;;;;;;6.93;3.63;;;;;;;;;;5103672;28;20027;-77
2023/10/24 10:06:47;;;;;;;7.05;4.35;;;;;;;;;;5103171;28;20020;-77
2023/10/24 10:09:14;;;;;;;5.88;3.65;;;;;;;;;;5098474;28;20185;-77
2023/10/24 10:11:42;;;;;;;6.45;3.45;;;;;;;;;;5102503;28;20028;-78
2023/10/24 10:14:11;;;;;;;13.88;10.25;;;;;;;;;;5095847;28;20031;-78
2023/10/24 10:16:36;;;;;;;6.90;3.45;;;;;;;;;;5099155;28;20035;-78
2023/10/24 10:19:04;;;;;;;5.65;3.28;;;;;;;;;;5103144;28;20488;-78
2023/10/24 10:21:39;;;;;;;5.72;3.78;;;;;;;;;;5086187;28;20031;-78
2023/10/24 10:24:23;;;;;;;4.95;2.75;;;;;;;;;;5094527;28;20025;-78
2023/10/24 10:27:01;;;;;;;9.57;4.32;;;;;;;;;;5092271;28;20028;-78
2023/10/24 10:29:45;;;;;;;8.82;3.70;;;;;;;;;;5086676;28;20077;-78
2023/10/24 10:32:16;;;;;;;6.35;3.72;;;;;;;;;;5103944;28;20548;-78
2023/10/24 10:34:43;;;;;;;6.57;3.78;;;;;;;;;;5103276;28;20534;-78
2023/10/24 10:37:08;;;;;;;6.57;3.55;;;;;;;;;;5103824;28;20021;-77
2023/10/24 10:39:34;;;;;;;6.72;3.97;;;;;;;;;;5088166;28;20039;-79
2023/10/24 10:41:59;;;;;;;8.18;4.93;;;;;;;;;;5079567;28;20036;-79
2023/10/24 10:44:38;;;;;;;8.70;6.17;;;;;;;;;;5090560;28;20058;-78
2023/10/24 10:47:04;;;;;;;9.35;5.25;;;;;;;;;;5098442;28;20278;-79
2023/10/24 10:49:50;;;;;;;8.00;5.35;;;;;;;;;;5101703;28;20059;-78
2023/10/24 10:52:24;;;;;;;9.95;6.68;;;;;;;;;;5071638;28;20020;-78
2023/10/24 10:54:57;;;;;;;7.43;4.68;;;;;;;;;;5090718;28;20016;-78
2023/10/24 10:57:27;;;;;;;11.02;6.32;;;;;;;;;;5077292;28;20032;-77
2023/10/24 11:00:07;;;;;;;11.32;8.25;;;;;;;;;;5086704;28;20020;-79
2023/10/24 11:02:32;;;;;;;6.30;2.67;;;;;;;;;;5105104;28;20083;-78
2023/10/24 11:04:57;;;;;;;8.47;4.37;;;;;;;;;;5088527;28;20537;-78
2023/10/24 11:07:41;;;;;;;10.98;5.22;;;;;;;;;;5098671;28;20270;-78
2023/10/24 11:10:13;;;;;;;8.70;5.28;;;;;;;;;;5095071;28;20024;-79
2023/10/24 11:12:46;;;;;;;9.00;5.40;;;;;;;;;;5073290;28;20035;-78
2023/10/24 11:15:14;;;;;;;10.27;5.70;;;;;;;;;;5105501;28;20568;-79
2023/10/24 11:17:40;;;;;;;9.02;4.28;;;;;;;;;;5085072;28;20039;-78
2023/10/24 11:20:08;;;;;;;10.57;4.25;;;;;;;;;;5100611;28;20024;-79
2023/10/24 11:22:33;;;;;;;7.85;4.65;;;;;;;;;;5098338;28;20028;-78
2023/10/24 11:25:19;;;;;;;6.78;4.85;;;;;;;;;;5128339;27;20415;-80
2023/10/24 11:27:48;;;;;;;10.88;4.63;;;;;;;;;;5080830;28;20029;-80
2023/10/24 11:30:13;;;;;;;10.52;5.28;;;;;;;;;;5114235;28;20080;-80
2023/10/24 11:32:39;;;;;;;9.02;5.55;;;;;;;;;;5101408;28;20031;-80
2023/10/24 11:35:05;;;;;;;7.43;5.38;;;;;;;;;;5092973;28;20040;-80
2023/10/24 11:37:30;;;;;;;9.88;5.22;;;;;;;;;;5096261;28;20028;-80
2023/10/24 11:39:58;;;;;;;8.55;5.22;;;;;;;;;;5093604;28;20024;-79
2023/10/24 11:42:24;;;;;;;7.55;5.05;;;;;;;;;;5099522;28;20024;-80
2023/10/24 11:44:49;;;;;;;7.55;4.75;;;;;;;;;;5101791;28;20115;-80
2023/10/24 11:47:14;;;;;;;8.68;5.43;;;;;;;;;;5098833;22;20041;-84
2023/10/24 11:49:40;;;;;;;7.20;5.18;;;;;;;;;;5071412;28;20029;-83
2023/10/24 11:52:05;;;;;;;9.68;5.85;;;;;;;;;;5067212;28;20060;-84
2023/10/24 11:54:31;;;;;;;8.10;5.53;;;;;;;;;;5069757;28;20068;-83
2023/10/24 11:56:56;;;;;;;7.30;4.95;;;;;;;;;;5063352;28;20030;-84
2023/10/24 11:59:22;;;;;;;8.27;5.00;;;;;;;;;;5063894;28;20056;-83
2023/10/24 12:01:47;;;;;;;7.25;4.80;;;;;;;;;;5061969;28;20025;-84
2023/10/24 12:04:13;;;;;;;10.23;5.82;;;;;;;;;;5059558;28;20041;-84
2023/10/24 12:06:38;;;;;;;8.18;5.20;;;;;;;;;;5059427;28;20036;-83
2023/10/24 12:09:04;;;;;;;8.35;5.05;;;;;;;;;;5057767;28;20485;-83
2023/10/24 12:11:31;;;;;;;10.65;7.00;;;;;;;;;;5058449;28;20024;-84
2023/10/24 12:13:57;;;;;;;9.82;6.43;;;;;;;;;;5054864;28;20413;-84
2023/10/24 12:16:26;;;;;;;8.68;5.63;;;;;;;;;;5059536;28;20029;-84
2023/10/24 12:18:52;;;;;;;8.75;5.60;;;;;;;;;;5060170;28;20055;-84
2023/10/24 12:21:17;;;;;;;9.57;6.15;;;;;;;;;;5060951;28;20024;-83
2023/10/24 12:23:42;;;;;;;8.93;5.97;;;;;;;;;;5065185;28;20396;-83
2023/10/24 12:26:07;;;;;;;7.20;5.78;;;;;;;;;;5062499;28;20037;-84
2023/10/24 12:28:34;;;;;;;9.20;6.55;;;;;;;;;;5062245;28;20029;-84
2023/10/24 12:30:59;;;;;;;10.25;7.05;;;;;;;;;;5059143;28;20056;-84
2023/10/24 12:33:25;;;;;;;9.98;7.32;;;;;;;;;;5056183;28;20409;-84
2023/10/24 12:35:51;;;;;;;9.48;7.35;;;;;;;;;;5047345;28;20029;-84
2023/10/24 12:38:17;;;;;;;10.40;8.02;;;;;;;;;;5049621;28;20098;-84
2023/10/24 12:40:44;;;;;;;9.82;7.18;;;;;;;;;;5045191;28;20091;-84
2023/10/24 12:43:09;;;;;;;8.43;6.63;;;;;;;;;;5061508;28;20401;-84
2023/10/24 12:45:34;;;;;;;9.13;6.25;;;;;;;;;;5051097;28;20020;-84
2023/10/24 12:48:01;;;;;;;9.50;6.72;;;;;;;;;;5044470;28;20032;-84
2023/10/24 12:50:26;;;;;;;9.52;5.93;;;;;;;;;;5042212;28;20040;-84
2023/10/24 12:52:51;;;;;;;9.98;6.07;;;;;;;;;;5040072;28;20018;-84
2023/10/24 12:55:19;;;;;;;9.35;6.03;;;;;;;;;;5048848;28;20075;-86
2023/10/24 12:57:44;;;;;;;9.20;6.40;;;;;;;;;;5032508;28;20423;-85
2023/10/24 13:00:10;;;;;;;9.15;6.00;;;;;;;;;;5042209;28;20025;-85
2023/10/24 13:02:35;;;;;;;9.73;6.35;;;;;;;;;;5044378;28;20029;-85
2023/10/24 13:05:01;;;;;;;10.75;7.38;;;;;;;;;;5042100;28;20048;-85
2023/10/24 13:07:26;;;;;;;10.85;6.93;;;;;;;;;;5042975;28;20025;-85
2023/10/24 13:09:51;;;;;;;10.05;6.88;;;;;;;;;;5044978;28;20370;-85
2023/10/24 13:12:16;;;;;;;8.85;5.78;;;;;;;;;;5042373;28;20038;-85
2023/10/24 13:14:42;;;;;;;10.45;6.38;;;;;;;;;;5047710;28;20025;-85
2023/10/24 13:17:07;;;;;;;8.80;5.78;;;;;;;;;;5038033;28;20397;-85
2023/10/24 13:19:32;;;;;;;8.65;5.95;;;;;;;;;;5042480;28;20037;-85
2023/10/24 13:21:57;;;;;;;9.68;5.95;;;;;;;;;;5042834;28;20087;-85
2023/10/24 13:24:23;;;;;;;9.18;6.20;;;;;;;;;;5039865;28;20116;-86
2023/10/24 13:26:49;;;;;;;9.70;5.72;;;;;;;;;;5038421;28;20037;-86
2023/10/24 13:29:14;;;;;;;9.38;6.35;;;;;;;;;;5040731;28;20025;-86
2023/10/24 13:31:40;;;;;;;9.75;5.95;;;;;;;;;;5043015;28;20024;-86
2023/10/24 13:34:06;;;;;;;10.93;7.20;;;;;;;;;;5026803;28;20029;-86
2023/10/24 13:36:31;;;;;;;9.43;6.95;;;;;;;;;;5042423;28;20029;-87
2023/10/24 13:38:57;;;;;;;13.52;7.72;;;;;;;;;;5041421;28;20112;-86
2023/10/24 13:41:22;;;;;;;16.13;8.65;;;;;;;;;;5042727;28;20025;-86
2023/10/24 13:43:47;;;;;;;14.55;8.23;;;;;;;;;;5045888;28;20386;-87
2023/10/24 13:46:12;;;;;;;8.45;5.80;;;;;;;;;;5042160;28;20488;-86
2023/10/24 13:48:37;;;;;;;9.18;5.57;;;;;;;;;;5044129;28;20054;-86
2023/10/24 13:51:03;;;;;;;9.43;5.72;;;;;;;;;;5047225;28;20087;-86
2023/10/24 13:53:28;;;;;;;8.80;6.07;;;;;;;;;;5039177;28;20025;-86
2023/10/24 13:55:53;;;;;;;8.55;5.70;;;;;;;;;;5041245;28;20052;-86
2023/10/24 13:58:20;;;;;;;8.52;6.65;;;;;;;;;;5042982;28;20033;-86
2023/10/24 14:00:47;;;;;;;11.50;6.88;;;;;;;;;;5043248;28;20448;-88
2023/10/24 14:03:12;;;;;;;8.30;6.45;;;;;;;;;;5048126;28;20079;-87
2023/10/24 14:05:39;;;;;;;10.05;6.28;;;;;;;;;;5037059;28;20030;-86
2023/10/24 14:08:04;;;;;;;7.15;5.35;;;;;;;;;;5042458;28;20041;-86
2023/10/24 14:10:30;;;;;;;9.50;6.55;;;;;;;;;;5042507;28;20025;-86
2023/10/24 14:12:55;;;;;;;8.63;6.03;;;;;;;;;;5043457;28;20030;-86
2023/10/24 14:15:20;;;;;;;7.93;5.82;;;;;;;;;;5047475;28;20162;-86
2023/10/24 14:17:45;;;;;;;9.73;5.63;;;;;;;;;;5038610;28;20021;-86
2023/10/24 14:20:10;;;;;;;8.50;5.57;;;;;;;;;;5046739;28;20021;-86
2023/10/24 14:22:36;;;;;;;8.98;6.07;;;;;;;;;;5044221;28;20385;-87
2023/10/24 14:25:02;;;;;;;10.38;6.78;;;;;;;;;;5041087;28;20029;-86
2023/10/24 14:27:28;;;;;;;8.63;6.03;;;;;;;;;;5042579;28;20025;-87
2023/10/24 14:29:54;;;;;;;7.97;5.57;;;;;;;;;;5038733;28;20037;-86
2023/10/24 14:32:19;;;;;;;10.13;6.38;;;;;;;;;;5039420;28;20436;-86
2023/10/24 14:34:44;;;;;;;13.93;6.80;;;;;;;;;;5040052;28;20079;-86